Shikarpur Weather



Shikarpur's Current Weather

Temprature 43o dust

dust

Rain: 0 %

Min Temprature43o
Max Temprature43o
Humidity34
Wind Speed5.1 m/h
Sun Rise05:34:12
Sun Set19:25:32
Current Time: 05-Jul-2020 18:08:54
Lat/Lon: 27.96, 68.64




Shikarpur's Geo Location



Shikarpur's Weather Forecast

Time Overall Temp Min Temp Max Temp Humidity Wind Speed Rain
05-Jul-2020 (Sun)
20:00:00 few clouds 40.920 38.740 40.920 32 9.14 m/h 0 %
23:00:00 few clouds 38.050 36.680 38.050 35 3.05 m/h 0 %
06-Jul-2020 (Mon)
02:00:00 clear sky 35.400 34.880 35.400 40 2.93 m/h 0 %
05:00:00 clear sky 33.620 33.540 33.620 55 7.3 m/h 0 %
08:00:00 clear sky 36.350 36.350 36.350 45 5.1 m/h 0 %
11:00:00 clear sky 42.730 42.730 42.730 25 4.41 m/h 0 %
14:00:00 scattered clouds 44.950 44.950 44.950 18 2.2 m/h 0 %
17:00:00 light rain 33.970 33.970 33.970 44 8.31 m/h 167 %
20:00:00 light rain 36.610 36.610 36.610 33 5.26 m/h 220 %
23:00:00 overcast clouds 35.140 35.140 35.140 40 4.95 m/h 0 %
07-Jul-2020 (Tue)
02:00:00 overcast clouds 32.550 32.550 32.550 54 3.19 m/h 0 %
05:00:00 overcast clouds 31.860 31.860 31.860 57 0.8 m/h 0 %
08:00:00 overcast clouds 35.710 35.710 35.710 43 3.49 m/h 0 %
11:00:00 broken clouds 41.490 41.490 41.490 27 1.45 m/h 0 %
14:00:00 broken clouds 44.660 44.660 44.660 20 1.7 m/h 0 %
17:00:00 light rain 43.120 43.120 43.120 21 2.09 m/h 14 %
20:00:00 overcast clouds 38.280 38.280 38.280 31 5.1 m/h 0 %
23:00:00 overcast clouds 36.710 36.710 36.710 35 3.66 m/h 0 %
08-Jul-2020 (Wed)
02:00:00 overcast clouds 35.900 35.900 35.900 36 1.6 m/h 0 %
05:00:00 overcast clouds 35.150 35.150 35.150 37 1.87 m/h 0 %
08:00:00 broken clouds 37.400 37.400 37.400 36 4.48 m/h 0 %
11:00:00 broken clouds 37.160 37.160 37.160 43 4.55 m/h 0 %
14:00:00 overcast clouds 39.240 39.240 39.240 35 2.82 m/h 0 %
17:00:00 broken clouds 43.130 43.130 43.130 25 3.05 m/h 0 %
20:00:00 few clouds 39.920 39.920 39.920 30 3.39 m/h 0 %
23:00:00 clear sky 36.930 36.930 36.930 43 7.4 m/h 0 %
09-Jul-2020 (Thu)
02:00:00 clear sky 34.670 34.670 34.670 54 7.29 m/h 0 %
05:00:00 clear sky 32.510 32.510 32.510 62 5.61 m/h 0 %
08:00:00 clear sky 34.260 34.260 34.260 53 5.32 m/h 0 %
11:00:00 clear sky 40.160 40.160 40.160 35 4.74 m/h 0 %
14:00:00 clear sky 43.680 43.680 43.680 26 3.86 m/h 0 %
17:00:00 clear sky 44.960 44.960 44.960 22 3.78 m/h 0 %
20:00:00 few clouds 41.610 41.610 41.610 27 6.25 m/h 0 %
23:00:00 clear sky 38.680 38.680 38.680 36 6.61 m/h 0 %
10-Jul-2020 (Fri)
02:00:00 clear sky 36.180 36.180 36.180 46 6.47 m/h 0 %
05:00:00 few clouds 34.010 34.010 34.010 57 6.4 m/h 0 %
08:00:00 clear sky 36.200 36.200 36.200 50 5.03 m/h 0 %
11:00:00 clear sky 41.950 41.950 41.950 32 3.41 m/h 0 %
14:00:00 clear sky 46.330 46.330 46.330 21 4.03 m/h 0 %
17:00:00 clear sky 46.600 46.600 46.600 18 5.04 m/h 0 %

Famous Cities (60)